sensor_id;sensor_type;location;lat;lon;timestamp;P1;durP1;ratioP1;P2;durP2;ratioP2
39788;SDS011;25478;42.626;23.320;2023-02-15T00:01:34;58.33;;;28.23;;
39788;SDS011;25478;42.626;23.320;2023-02-15T00:04:01;57.27;;;27.47;;
39788;SDS011;25478;42.626;23.320;2023-02-15T00:06:26;55.77;;;27.20;;
39788;SDS011;25478;42.626;23.320;2023-02-15T00:08:53;53.83;;;26.83;;
39788;SDS011;25478;42.626;23.320;2023-02-15T00:11:19;52.97;;;26.10;;
39788;SDS011;25478;42.626;23.320;2023-02-15T00:14:14;54.00;;;27.17;;
39788;SDS011;25478;42.626;23.320;2023-02-15T00:16:41;55.70;;;27.87;;
39788;SDS011;25478;42.626;23.320;2023-02-15T00:19:07;57.80;;;29.47;;
39788;SDS011;25478;42.626;23.320;2023-02-15T00:21:34;57.73;;;26.73;;
39788;SDS011;25478;42.626;23.320;2023-02-15T00:24:01;54.33;;;26.33;;
39788;SDS011;25478;42.626;23.320;2023-02-15T00:26:27;53.63;;;28.93;;
39788;SDS011;25478;42.626;23.320;2023-02-15T00:28:53;56.40;;;28.33;;
39788;SDS011;25478;42.626;23.320;2023-02-15T00:31:19;53.90;;;26.83;;
39788;SDS011;25478;42.626;23.320;2023-02-15T00:33:45;59.77;;;26.60;;
39788;SDS011;25478;42.626;23.320;2023-02-15T00:36:11;56.40;;;27.23;;
39788;SDS011;25478;42.626;23.320;2023-02-15T00:38:37;55.43;;;27.17;;
39788;SDS011;25478;42.626;23.320;2023-02-15T00:41:04;54.20;;;26.60;;
39788;SDS011;25478;42.626;23.320;2023-02-15T00:43:31;56.33;;;26.70;;
39788;SDS011;25478;42.626;23.320;2023-02-15T00:45:57;52.80;;;26.03;;
39788;SDS011;25478;42.626;23.320;2023-02-15T00:48:23;52.83;;;24.87;;
39788;SDS011;25478;42.626;23.320;2023-02-15T00:50:50;54.10;;;27.33;;
39788;SDS011;25478;42.626;23.320;2023-02-15T00:53:20;52.13;;;26.43;;
39788;SDS011;25478;42.626;23.320;2023-02-15T00:55:46;53.90;;;26.97;;
39788;SDS011;25478;42.626;23.320;2023-02-15T00:58:13;51.77;;;25.23;;
39788;SDS011;25478;42.626;23.320;2023-02-15T01:00:39;56.97;;;27.80;;
39788;SDS011;25478;42.626;23.320;2023-02-15T01:03:06;55.90;;;26.03;;
39788;SDS011;25478;42.626;23.320;2023-02-15T01:05:31;56.10;;;27.43;;
39788;SDS011;25478;42.626;23.320;2023-02-15T01:07:57;49.97;;;25.83;;
39788;SDS011;25478;42.626;23.320;2023-02-15T01:10:24;53.40;;;25.63;;
39788;SDS011;25478;42.626;23.320;2023-02-15T01:12:51;53.77;;;26.67;;
39788;SDS011;25478;42.626;23.320;2023-02-15T01:15:17;53.63;;;26.77;;
39788;SDS011;25478;42.626;23.320;2023-02-15T01:17:43;56.73;;;26.70;;
39788;SDS011;25478;42.626;23.320;2023-02-15T01:20:11;55.17;;;26.23;;
39788;SDS011;25478;42.626;23.320;2023-02-15T01:22:36;51.03;;;25.10;;
39788;SDS011;25478;42.626;23.320;2023-02-15T01:25:02;58.50;;;27.37;;
39788;SDS011;25478;42.626;23.320;2023-02-15T01:27:28;49.70;;;26.73;;
39788;SDS011;25478;42.626;23.320;2023-02-15T01:29:55;55.93;;;25.83;;
39788;SDS011;25478;42.626;23.320;2023-02-15T01:32:21;52.60;;;25.77;;
39788;SDS011;25478;42.626;23.320;2023-02-15T01:34:46;52.30;;;25.33;;
39788;SDS011;25478;42.626;23.320;2023-02-15T01:37:12;54.27;;;25.00;;
39788;SDS011;25478;42.626;23.320;2023-02-15T01:39:37;53.33;;;25.43;;
39788;SDS011;25478;42.626;23.320;2023-02-15T01:42:03;51.40;;;26.30;;
39788;SDS011;25478;42.626;23.320;2023-02-15T01:47:21;53.23;;;25.17;;
39788;SDS011;25478;42.626;23.320;2023-02-15T01:49:54;50.73;;;25.70;;
39788;SDS011;25478;42.626;23.320;2023-02-15T01:52:29;51.73;;;23.77;;
39788;SDS011;25478;42.626;23.320;2023-02-15T01:54:54;51.50;;;24.47;;
39788;SDS011;25478;42.626;23.320;2023-02-15T01:57:22;52.57;;;26.27;;
39788;SDS011;25478;42.626;23.320;2023-02-15T01:59:53;48.90;;;24.57;;
39788;SDS011;25478;42.626;23.320;2023-02-15T02:02:21;46.33;;;24.40;;
39788;SDS011;25478;42.626;23.320;2023-02-15T02:04:52;57.07;;;25.23;;
39788;SDS011;25478;42.626;23.320;2023-02-15T02:07:22;50.33;;;24.63;;
39788;SDS011;25478;42.626;23.320;2023-02-15T02:09:51;51.37;;;25.70;;
39788;SDS011;25478;42.626;23.320;2023-02-15T02:12:17;48.33;;;23.63;;
39788;SDS011;25478;42.626;23.320;2023-02-15T02:14:44;45.63;;;21.87;;
39788;SDS011;25478;42.626;23.320;2023-02-15T02:36:50;47.50;;;23.10;;
39788;SDS011;25478;42.626;23.320;2023-02-15T02:46:24;49.10;;;23.90;;
39788;SDS011;25478;42.626;23.320;2023-02-15T02:48:26;49.47;;;24.47;;
39788;SDS011;25478;42.626;23.320;2023-02-15T02:50:55;48.63;;;21.73;;
39788;SDS011;25478;42.626;23.320;2023-02-15T02:53:21;45.53;;;21.90;;
39788;SDS011;25478;42.626;23.320;2023-02-15T02:55:50;47.93;;;23.10;;
39788;SDS011;25478;42.626;23.320;2023-02-15T02:58:25;43.33;;;21.27;;
39788;SDS011;25478;42.626;23.320;2023-02-15T03:00:59;45.33;;;22.97;;
39788;SDS011;25478;42.626;23.320;2023-02-15T03:08:36;48.87;;;22.57;;
39788;SDS011;25478;42.626;23.320;2023-02-15T03:11:06;44.00;;;22.07;;
39788;SDS011;25478;42.626;23.320;2023-02-15T03:13:32;45.57;;;22.70;;
39788;SDS011;25478;42.626;23.320;2023-02-15T03:15:59;47.33;;;23.97;;
39788;SDS011;25478;42.626;23.320;2023-02-15T03:18:46;43.60;;;21.57;;
39788;SDS011;25478;42.626;23.320;2023-02-15T03:21:20;42.63;;;22.73;;
39788;SDS011;25478;42.626;23.320;2023-02-15T03:23:53;44.77;;;22.57;;
39788;SDS011;25478;42.626;23.320;2023-02-15T03:26:25;45.80;;;23.17;;
39788;SDS011;25478;42.626;23.320;2023-02-15T03:28:53;44.60;;;22.27;;
39788;SDS011;25478;42.626;23.320;2023-02-15T03:31:22;43.50;;;22.73;;
39788;SDS011;25478;42.626;23.320;2023-02-15T03:33:56;44.07;;;22.63;;
39788;SDS011;25478;42.626;23.320;2023-02-15T03:42:01;43.37;;;22.23;;
39788;SDS011;25478;42.626;23.320;2023-02-15T03:44:30;42.90;;;22.43;;
39788;SDS011;25478;42.626;23.320;2023-02-15T03:47:08;40.10;;;20.93;;
39788;SDS011;25478;42.626;23.320;2023-02-15T03:49:44;38.77;;;21.40;;
39788;SDS011;25478;42.626;23.320;2023-02-15T03:52:10;40.73;;;20.57;;
39788;SDS011;25478;42.626;23.320;2023-02-15T03:54:38;41.93;;;21.23;;
39788;SDS011;25478;42.626;23.320;2023-02-15T03:57:09;43.83;;;21.37;;
39788;SDS011;25478;42.626;23.320;2023-02-15T03:59:56;44.37;;;21.63;;
39788;SDS011;25478;42.626;23.320;2023-02-15T04:02:48;43.70;;;21.07;;
39788;SDS011;25478;42.626;23.320;2023-02-15T04:05:38;38.60;;;20.57;;
39788;SDS011;25478;42.626;23.320;2023-02-15T04:08:04;43.30;;;22.30;;
39788;SDS011;25478;42.626;23.320;2023-02-15T04:10:30;43.30;;;21.33;;
39788;SDS011;25478;42.626;23.320;2023-02-15T04:13:14;34.03;;;16.98;;
39788;SDS011;25478;42.626;23.320;2023-02-15T04:15:39;41.90;;;21.70;;
39788;SDS011;25478;42.626;23.320;2023-02-15T04:18:23;45.87;;;23.93;;
39788;SDS011;25478;42.626;23.320;2023-02-15T04:21:07;48.93;;;22.93;;
39788;SDS011;25478;42.626;23.320;2023-02-15T04:23:51;48.75;;;23.27;;
39788;SDS011;25478;42.626;23.320;2023-02-15T04:26:35;43.40;;;21.73;;
39788;SDS011;25478;42.626;23.320;2023-02-15T04:29:00;46.27;;;24.33;;
39788;SDS011;25478;42.626;23.320;2023-02-15T04:31:26;46.87;;;22.57;;
39788;SDS011;25478;42.626;23.320;2023-02-15T04:33:51;44.80;;;24.07;;
39788;SDS011;25478;42.626;23.320;2023-02-15T04:36:17;49.50;;;24.17;;
39788;SDS011;25478;42.626;23.320;2023-02-15T04:38:42;46.00;;;23.10;;
39788;SDS011;25478;42.626;23.320;2023-02-15T04:41:08;46.73;;;22.73;;
39788;SDS011;25478;42.626;23.320;2023-02-15T04:43:35;44.67;;;22.70;;
39788;SDS011;25478;42.626;23.320;2023-02-15T04:46:01;43.70;;;22.90;;
39788;SDS011;25478;42.626;23.320;2023-02-15T04:48:26;49.93;;;23.33;;
39788;SDS011;25478;42.626;23.320;2023-02-15T04:50:52;45.10;;;22.40;;
39788;SDS011;25478;42.626;23.320;2023-02-15T04:53:18;47.53;;;23.17;;
39788;SDS011;25478;42.626;23.320;2023-02-15T04:55:43;45.20;;;22.37;;
39788;SDS011;25478;42.626;23.320;2023-02-15T04:58:09;42.83;;;22.40;;
39788;SDS011;25478;42.626;23.320;2023-02-15T05:00:34;47.67;;;24.60;;
39788;SDS011;25478;42.626;23.320;2023-02-15T05:03:00;46.57;;;22.73;;
39788;SDS011;25478;42.626;23.320;2023-02-15T05:05:26;41.07;;;22.77;;
39788;SDS011;25478;42.626;23.320;2023-02-15T05:07:51;48.40;;;22.73;;
39788;SDS011;25478;42.626;23.320;2023-02-15T05:10:17;44.73;;;21.83;;
39788;SDS011;25478;42.626;23.320;2023-02-15T05:12:42;44.83;;;22.40;;
39788;SDS011;25478;42.626;23.320;2023-02-15T05:15:08;49.83;;;24.07;;
39788;SDS011;25478;42.626;23.320;2023-02-15T05:17:33;44.73;;;22.17;;
39788;SDS011;25478;42.626;23.320;2023-02-15T05:19:59;47.37;;;24.10;;
39788;SDS011;25478;42.626;23.320;2023-02-15T05:22:25;47.50;;;23.10;;
39788;SDS011;25478;42.626;23.320;2023-02-15T05:24:50;46.23;;;23.53;;
39788;SDS011;25478;42.626;23.320;2023-02-15T05:27:34;49.97;;;24.52;;
39788;SDS011;25478;42.626;23.320;2023-02-15T05:30:18;46.80;;;22.77;;
39788;SDS011;25478;42.626;23.320;2023-02-15T05:32:44;46.83;;;21.87;;
39788;SDS011;25478;42.626;23.320;2023-02-15T05:35:13;44.27;;;22.60;;
39788;SDS011;25478;42.626;23.320;2023-02-15T05:37:40;46.53;;;22.90;;
39788;SDS011;25478;42.626;23.320;2023-02-15T05:40:07;48.23;;;22.27;;
39788;SDS011;25478;42.626;23.320;2023-02-15T05:42:33;46.90;;;23.47;;
39788;SDS011;25478;42.626;23.320;2023-02-15T05:44:58;54.50;;;24.03;;
39788;SDS011;25478;42.626;23.320;2023-02-15T05:47:24;44.30;;;23.13;;
39788;SDS011;25478;42.626;23.320;2023-02-15T05:49:49;44.37;;;21.00;;
39788;SDS011;25478;42.626;23.320;2023-02-15T05:52:15;42.23;;;21.47;;
39788;SDS011;25478;42.626;23.320;2023-02-15T05:54:40;44.37;;;22.57;;
39788;SDS011;25478;42.626;23.320;2023-02-15T05:57:06;46.23;;;21.90;;
39788;SDS011;25478;42.626;23.320;2023-02-15T05:59:31;48.83;;;23.30;;
39788;SDS011;25478;42.626;23.320;2023-02-15T06:01:57;50.87;;;24.37;;
39788;SDS011;25478;42.626;23.320;2023-02-15T06:04:22;47.37;;;22.90;;
39788;SDS011;25478;42.626;23.320;2023-02-15T06:06:48;44.90;;;23.33;;
39788;SDS011;25478;42.626;23.320;2023-02-15T06:09:13;38.97;;;20.23;;
39788;SDS011;25478;42.626;23.320;2023-02-15T06:11:39;46.50;;;22.67;;
39788;SDS011;25478;42.626;23.320;2023-02-15T06:14:05;44.23;;;21.93;;
39788;SDS011;25478;42.626;23.320;2023-02-15T06:16:30;43.13;;;22.77;;
39788;SDS011;25478;42.626;23.320;2023-02-15T06:18:56;43.27;;;22.07;;
39788;SDS011;25478;42.626;23.320;2023-02-15T06:21:22;44.70;;;23.33;;
39788;SDS011;25478;42.626;23.320;2023-02-15T06:23:47;45.73;;;21.70;;
39788;SDS011;25478;42.626;23.320;2023-02-15T06:26:13;40.40;;;21.20;;
39788;SDS011;25478;42.626;23.320;2023-02-15T06:28:38;42.97;;;21.63;;
39788;SDS011;25478;42.626;23.320;2023-02-15T06:31:06;41.17;;;21.13;;
39788;SDS011;25478;42.626;23.320;2023-02-15T06:33:31;39.73;;;20.93;;
39788;SDS011;25478;42.626;23.320;2023-02-15T06:35:59;38.00;;;19.27;;
39788;SDS011;25478;42.626;23.320;2023-02-15T06:38:24;38.00;;;20.47;;
39788;SDS011;25478;42.626;23.320;2023-02-15T06:40:50;36.60;;;19.40;;
39788;SDS011;25478;42.626;23.320;2023-02-15T06:43:15;34.73;;;19.20;;
39788;SDS011;25478;42.626;23.320;2023-02-15T06:45:41;36.87;;;19.47;;
39788;SDS011;25478;42.626;23.320;2023-02-15T06:48:07;38.60;;;18.97;;
39788;SDS011;25478;42.626;23.320;2023-02-15T06:50:33;34.20;;;17.63;;
39788;SDS011;25478;42.626;23.320;2023-02-15T06:52:59;33.37;;;17.63;;
39788;SDS011;25478;42.626;23.320;2023-02-15T06:55:25;33.20;;;17.00;;
39788;SDS011;25478;42.626;23.320;2023-02-15T06:57:51;36.00;;;18.10;;
39788;SDS011;25478;42.626;23.320;2023-02-15T07:00:16;31.47;;;17.17;;
39788;SDS011;25478;42.626;23.320;2023-02-15T07:02:43;33.50;;;17.87;;
39788;SDS011;25478;42.626;23.320;2023-02-15T07:05:08;33.37;;;16.70;;
39788;SDS011;25478;42.626;23.320;2023-02-15T07:07:34;33.60;;;18.47;;
39788;SDS011;25478;42.626;23.320;2023-02-15T07:09:59;32.20;;;17.10;;
39788;SDS011;25478;42.626;23.320;2023-02-15T07:12:25;32.10;;;17.60;;
39788;SDS011;25478;42.626;23.320;2023-02-15T07:15:06;28.50;;;16.97;;
39788;SDS011;25478;42.626;23.320;2023-02-15T07:17:34;34.77;;;18.13;;
39788;SDS011;25478;42.626;23.320;2023-02-15T07:20:00;30.30;;;15.73;;
39788;SDS011;25478;42.626;23.320;2023-02-15T07:22:26;31.80;;;15.73;;
39788;SDS011;25478;42.626;23.320;2023-02-15T07:24:53;31.57;;;16.30;;
39788;SDS011;25478;42.626;23.320;2023-02-15T07:27:20;28.67;;;15.90;;
39788;SDS011;25478;42.626;23.320;2023-02-15T07:29:46;29.40;;;16.43;;
39788;SDS011;25478;42.626;23.320;2023-02-15T07:32:11;31.07;;;18.00;;
39788;SDS011;25478;42.626;23.320;2023-02-15T07:34:37;29.27;;;15.80;;
39788;SDS011;25478;42.626;23.320;2023-02-15T07:37:02;30.30;;;17.87;;
39788;SDS011;25478;42.626;23.320;2023-02-15T07:39:29;27.13;;;16.23;;
39788;SDS011;25478;42.626;23.320;2023-02-15T07:41:55;30.63;;;16.50;;
39788;SDS011;25478;42.626;23.320;2023-02-15T07:44:24;30.67;;;16.57;;
39788;SDS011;25478;42.626;23.320;2023-02-15T07:46:50;27.03;;;15.23;;
39788;SDS011;25478;42.626;23.320;2023-02-15T07:49:15;25.50;;;14.03;;
39788;SDS011;25478;42.626;23.320;2023-02-15T07:51:41;29.77;;;15.97;;
39788;SDS011;25478;42.626;23.320;2023-02-15T07:54:06;27.30;;;14.77;;
39788;SDS011;25478;42.626;23.320;2023-02-15T07:56:32;28.47;;;15.13;;
39788;SDS011;25478;42.626;23.320;2023-02-15T07:58:58;27.77;;;15.63;;
39788;SDS011;25478;42.626;23.320;2023-02-15T08:01:26;26.97;;;15.37;;
39788;SDS011;25478;42.626;23.320;2023-02-15T08:03:54;26.60;;;15.53;;
39788;SDS011;25478;42.626;23.320;2023-02-15T08:06:20;26.53;;;16.30;;
39788;SDS011;25478;42.626;23.320;2023-02-15T08:08:49;25.57;;;15.30;;
39788;SDS011;25478;42.626;23.320;2023-02-15T08:11:21;28.77;;;16.47;;
39788;SDS011;25478;42.626;23.320;2023-02-15T08:16:31;28.47;;;16.30;;
39788;SDS011;25478;42.626;23.320;2023-02-15T08:18:58;29.60;;;15.77;;
39788;SDS011;25478;42.626;23.320;2023-02-15T08:21:26;29.07;;;16.23;;
39788;SDS011;25478;42.626;23.320;2023-02-15T08:23:53;30.70;;;16.83;;
39788;SDS011;25478;42.626;23.320;2023-02-15T08:26:19;31.30;;;17.03;;
39788;SDS011;25478;42.626;23.320;2023-02-15T08:28:45;28.00;;;16.87;;
39788;SDS011;25478;42.626;23.320;2023-02-15T08:31:12;28.60;;;15.53;;
39788;SDS011;25478;42.626;23.320;2023-02-15T08:33:39;31.73;;;17.43;;
39788;SDS011;25478;42.626;23.320;2023-02-15T08:36:07;29.13;;;16.67;;
39788;SDS011;25478;42.626;23.320;2023-02-15T08:38:34;29.57;;;16.97;;
39788;SDS011;25478;42.626;23.320;2023-02-15T08:41:20;30.50;;;16.63;;
39788;SDS011;25478;42.626;23.320;2023-02-15T08:43:48;27.47;;;15.80;;
39788;SDS011;25478;42.626;23.320;2023-02-15T08:46:16;26.20;;;15.27;;
39788;SDS011;25478;42.626;23.320;2023-02-15T08:48:42;28.43;;;15.83;;
39788;SDS011;25478;42.626;23.320;2023-02-15T08:53:36;24.57;;;15.63;;
39788;SDS011;25478;42.626;23.320;2023-02-15T08:56:02;26.93;;;16.13;;
39788;SDS011;25478;42.626;23.320;2023-02-15T08:58:29;25.73;;;14.47;;
39788;SDS011;25478;42.626;23.320;2023-02-15T09:00:56;25.73;;;14.70;;
39788;SDS011;25478;42.626;23.320;2023-02-15T09:03:22;27.63;;;15.90;;
39788;SDS011;25478;42.626;23.320;2023-02-15T09:05:48;26.67;;;15.30;;
39788;SDS011;25478;42.626;23.320;2023-02-15T09:08:13;27.50;;;16.27;;
39788;SDS011;25478;42.626;23.320;2023-02-15T09:10:39;24.60;;;14.50;;
39788;SDS011;25478;42.626;23.320;2023-02-15T09:13:04;28.20;;;17.63;;
39788;SDS011;25478;42.626;23.320;2023-02-15T09:15:30;24.07;;;14.07;;
39788;SDS011;25478;42.626;23.320;2023-02-15T09:17:55;26.97;;;15.10;;
39788;SDS011;25478;42.626;23.320;2023-02-15T09:20:21;27.00;;;15.93;;
39788;SDS011;25478;42.626;23.320;2023-02-15T09:22:47;27.93;;;15.57;;
39788;SDS011;25478;42.626;23.320;2023-02-15T09:25:12;26.43;;;15.90;;
39788;SDS011;25478;42.626;23.320;2023-02-15T09:27:38;24.27;;;15.90;;
39788;SDS011;25478;42.626;23.320;2023-02-15T09:30:05;30.17;;;16.37;;
39788;SDS011;25478;42.626;23.320;2023-02-15T09:32:31;28.43;;;16.80;;
39788;SDS011;25478;42.626;23.320;2023-02-15T09:34:56;28.17;;;16.67;;
39788;SDS011;25478;42.626;23.320;2023-02-15T09:37:22;30.47;;;18.10;;
39788;SDS011;25478;42.626;23.320;2023-02-15T09:39:47;31.37;;;18.17;;
39788;SDS011;25478;42.626;23.320;2023-02-15T09:51:03;29.97;;;17.60;;
39788;SDS011;25478;42.626;23.320;2023-02-15T09:56:58;27.00;;;16.13;;
39788;SDS011;25478;42.626;23.320;2023-02-15T09:59:36;29.87;;;16.90;;
39788;SDS011;25478;42.626;23.320;2023-02-15T10:02:38;29.42;;;17.48;;
39788;SDS011;25478;42.626;23.320;2023-02-15T10:05:42;29.05;;;16.38;;
39788;SDS011;25478;42.626;23.320;2023-02-15T10:27:49;31.87;;;17.53;;
39788;SDS011;25478;42.626;23.320;2023-02-15T10:30:20;28.93;;;17.10;;
39788;SDS011;25478;42.626;23.320;2023-02-15T10:33:00;32.37;;;18.43;;
39788;SDS011;25478;42.626;23.320;2023-02-15T10:35:50;32.63;;;18.00;;
39788;SDS011;25478;42.626;23.320;2023-02-15T10:41:53;30.83;;;17.73;;
39788;SDS011;25478;42.626;23.320;2023-02-15T10:44:33;30.15;;;17.15;;
39788;SDS011;25478;42.626;23.320;2023-02-15T10:47:38;35.63;;;19.63;;
39788;SDS011;25478;42.626;23.320;2023-02-15T11:01:34;35.40;;;19.30;;
39788;SDS011;25478;42.626;23.320;2023-02-15T11:07:15;34.57;;;20.47;;
39788;SDS011;25478;42.626;23.320;2023-02-15T11:12:26;36.23;;;20.03;;
39788;SDS011;25478;42.626;23.320;2023-02-15T11:14:58;33.67;;;20.80;;
39788;SDS011;25478;42.626;23.320;2023-02-15T11:17:34;34.60;;;20.27;;
39788;SDS011;25478;42.626;23.320;2023-02-15T11:22:36;34.10;;;20.33;;
39788;SDS011;25478;42.626;23.320;2023-02-15T11:25:05;35.77;;;20.47;;
39788;SDS011;25478;42.626;23.320;2023-02-15T11:27:42;34.70;;;20.30;;
39788;SDS011;25478;42.626;23.320;2023-02-15T11:30:10;35.87;;;22.40;;
39788;SDS011;25478;42.626;23.320;2023-02-15T11:32:42;37.67;;;21.80;;
39788;SDS011;25478;42.626;23.320;2023-02-15T11:40:19;38.27;;;20.77;;
39788;SDS011;25478;42.626;23.320;2023-02-15T11:42:46;37.20;;;21.83;;
39788;SDS011;25478;42.626;23.320;2023-02-15T11:45:30;35.53;;;21.43;;
39788;SDS011;25478;42.626;23.320;2023-02-15T11:47:58;35.97;;;21.53;;
39788;SDS011;25478;42.626;23.320;2023-02-15T11:50:26;35.87;;;21.07;;
39788;SDS011;25478;42.626;23.320;2023-02-15T11:52:58;36.93;;;21.37;;
39788;SDS011;25478;42.626;23.320;2023-02-15T11:55:29;36.87;;;20.73;;
39788;SDS011;25478;42.626;23.320;2023-02-15T11:58:02;35.43;;;20.93;;
39788;SDS011;25478;42.626;23.320;2023-02-15T12:00:41;36.93;;;20.60;;
39788;SDS011;25478;42.626;23.320;2023-02-15T12:03:57;36.63;;;21.43;;
39788;SDS011;25478;42.626;23.320;2023-02-15T12:06:22;36.73;;;21.60;;
39788;SDS011;25478;42.626;23.320;2023-02-15T12:08:54;38.57;;;21.60;;
39788;SDS011;25478;42.626;23.320;2023-02-15T12:11:31;37.03;;;21.63;;
39788;SDS011;25478;42.626;23.320;2023-02-15T12:14:10;37.65;;;21.08;;
39788;SDS011;25478;42.626;23.320;2023-02-15T12:16:47;37.60;;;21.00;;
39788;SDS011;25478;42.626;23.320;2023-02-15T12:21:50;33.33;;;18.70;;
39788;SDS011;25478;42.626;23.320;2023-02-15T12:24:21;40.63;;;21.97;;
39788;SDS011;25478;42.626;23.320;2023-02-15T12:29:31;37.70;;;21.47;;
39788;SDS011;25478;42.626;23.320;2023-02-15T12:32:05;38.90;;;20.93;;
39788;SDS011;25478;42.626;23.320;2023-02-15T12:34:37;38.87;;;22.03;;
39788;SDS011;25478;42.626;23.320;2023-02-15T12:37:25;38.33;;;21.37;;
39788;SDS011;25478;42.626;23.320;2023-02-15T12:40:00;39.53;;;22.20;;
39788;SDS011;25478;42.626;23.320;2023-02-15T12:42:43;40.23;;;21.87;;
39788;SDS011;25478;42.626;23.320;2023-02-15T12:45:27;41.70;;;21.67;;
39788;SDS011;25478;42.626;23.320;2023-02-15T12:50:37;37.27;;;21.37;;
39788;SDS011;25478;42.626;23.320;2023-02-15T12:53:06;37.23;;;21.90;;
39788;SDS011;25478;42.626;23.320;2023-02-15T12:55:38;37.67;;;22.60;;
39788;SDS011;25478;42.626;23.320;2023-02-15T12:58:07;40.00;;;23.00;;
39788;SDS011;25478;42.626;23.320;2023-02-15T13:00:43;38.20;;;22.73;;
39788;SDS011;25478;42.626;23.320;2023-02-15T13:03:17;38.23;;;22.00;;
39788;SDS011;25478;42.626;23.320;2023-02-15T13:05:46;41.47;;;22.13;;
39788;SDS011;25478;42.626;23.320;2023-02-15T13:08:19;36.03;;;20.67;;
39788;SDS011;25478;42.626;23.320;2023-02-15T13:13:25;33.17;;;18.50;;
39788;SDS011;25478;42.626;23.320;2023-02-15T13:15:54;39.27;;;21.57;;
39788;SDS011;25478;42.626;23.320;2023-02-15T13:18:33;41.00;;;23.40;;
39788;SDS011;25478;42.626;23.320;2023-02-15T13:21:06;38.37;;;23.03;;
39788;SDS011;25478;42.626;23.320;2023-02-15T13:23:34;42.63;;;23.80;;
39788;SDS011;25478;42.626;23.320;2023-02-15T13:26:03;37.77;;;22.37;;
39788;SDS011;25478;42.626;23.320;2023-02-15T13:28:43;36.80;;;21.40;;
39788;SDS011;25478;42.626;23.320;2023-02-15T13:31:17;40.57;;;23.23;;
39788;SDS011;25478;42.626;23.320;2023-02-15T13:33:51;39.53;;;23.30;;
39788;SDS011;25478;42.626;23.320;2023-02-15T13:36:23;36.17;;;22.77;;
39788;SDS011;25478;42.626;23.320;2023-02-15T13:41:33;41.87;;;24.93;;
39788;SDS011;25478;42.626;23.320;2023-02-15T13:49:44;38.83;;;23.40;;
39788;SDS011;25478;42.626;23.320;2023-02-15T13:52:32;38.80;;;22.00;;
39788;SDS011;25478;42.626;23.320;2023-02-15T14:03:46;44.00;;;24.23;;
39788;SDS011;25478;42.626;23.320;2023-02-15T14:25:35;38.03;;;23.23;;
39788;SDS011;25478;42.626;23.320;2023-02-15T14:33:19;41.30;;;23.37;;
39788;SDS011;25478;42.626;23.320;2023-02-15T14:36:02;40.92;;;23.65;;
39788;SDS011;25478;42.626;23.320;2023-02-15T14:41:15;45.83;;;24.63;;
39788;SDS011;25478;42.626;23.320;2023-02-15T14:49:31;49.03;;;25.47;;
39788;SDS011;25478;42.626;23.320;2023-02-15T14:52:03;44.80;;;25.40;;
39788;SDS011;25478;42.626;23.320;2023-02-15T15:07:03;52.97;;;26.53;;
39788;SDS011;25478;42.626;23.320;2023-02-15T15:09:39;53.67;;;26.90;;
39788;SDS011;25478;42.626;23.320;2023-02-15T15:12:36;47.47;;;26.50;;
39788;SDS011;25478;42.626;23.320;2023-02-15T15:15:04;53.87;;;28.33;;
39788;SDS011;25478;42.626;23.320;2023-02-15T15:19:57;60.33;;;31.60;;
39788;SDS011;25478;42.626;23.320;2023-02-15T15:22:25;63.03;;;33.70;;
39788;SDS011;25478;42.626;23.320;2023-02-15T15:24:52;56.27;;;31.47;;
39788;SDS011;25478;42.626;23.320;2023-02-15T15:27:38;72.83;;;36.80;;
39788;SDS011;25478;42.626;23.320;2023-02-15T15:32:41;105.97;;;51.77;;
39788;SDS011;25478;42.626;23.320;2023-02-15T15:49:02;79.82;;;36.92;;
39788;SDS011;25478;42.626;23.320;2023-02-15T15:51:34;63.10;;;33.13;;
39788;SDS011;25478;42.626;23.320;2023-02-15T15:54:01;78.40;;;40.43;;
39788;SDS011;25478;42.626;23.320;2023-02-15T15:56:30;79.40;;;39.03;;
39788;SDS011;25478;42.626;23.320;2023-02-15T15:59:11;117.60;;;53.70;;
39788;SDS011;25478;42.626;23.320;2023-02-15T16:01:47;115.10;;;51.60;;
39788;SDS011;25478;42.626;23.320;2023-02-15T16:04:13;113.93;;;52.63;;
39788;SDS011;25478;42.626;23.320;2023-02-15T16:06:49;181.67;;;72.70;;
39788;SDS011;25478;42.626;23.320;2023-02-15T16:11:43;210.53;;;79.40;;
39788;SDS011;25478;42.626;23.320;2023-02-15T16:14:12;194.07;;;72.63;;
39788;SDS011;25478;42.626;23.320;2023-02-15T16:16:41;189.77;;;76.53;;
39788;SDS011;25478;42.626;23.320;2023-02-15T16:19:24;169.13;;;68.93;;
39788;SDS011;25478;42.626;23.320;2023-02-15T16:21:53;119.33;;;56.83;;
39788;SDS011;25478;42.626;23.320;2023-02-15T16:29:35;52.87;;;29.83;;
39788;SDS011;25478;42.626;23.320;2023-02-15T16:32:05;51.60;;;29.37;;
39788;SDS011;25478;42.626;23.320;2023-02-15T16:35:02;55.50;;;31.23;;
39788;SDS011;25478;42.626;23.320;2023-02-15T16:37:37;51.23;;;26.97;;
39788;SDS011;25478;42.626;23.320;2023-02-15T16:40:02;50.28;;;27.58;;
39788;SDS011;25478;42.626;23.320;2023-02-15T16:42:28;56.97;;;29.90;;
39788;SDS011;25478;42.626;23.320;2023-02-15T16:45:12;66.67;;;33.77;;
39788;SDS011;25478;42.626;23.320;2023-02-15T16:47:43;84.17;;;39.40;;
39788;SDS011;25478;42.626;23.320;2023-02-15T16:50:23;71.27;;;36.50;;
39788;SDS011;25478;42.626;23.320;2023-02-15T16:53:03;89.70;;;44.47;;
39788;SDS011;25478;42.626;23.320;2023-02-15T16:55:39;85.77;;;44.20;;
39788;SDS011;25478;42.626;23.320;2023-02-15T17:00:37;59.53;;;29.77;;
39788;SDS011;25478;42.626;23.320;2023-02-15T17:05:40;73.27;;;33.90;;
39788;SDS011;25478;42.626;23.320;2023-02-15T17:16:36;41.63;;;22.20;;
39788;SDS011;25478;42.626;23.320;2023-02-15T17:19:08;54.17;;;25.17;;
39788;SDS011;25478;42.626;23.320;2023-02-15T17:21:40;56.00;;;27.50;;
39788;SDS011;25478;42.626;23.320;2023-02-15T17:24:44;54.43;;;26.87;;
39788;SDS011;25478;42.626;23.320;2023-02-15T17:27:15;55.67;;;27.00;;
39788;SDS011;25478;42.626;23.320;2023-02-15T17:29:51;54.83;;;27.17;;
39788;SDS011;25478;42.626;23.320;2023-02-15T17:32:25;53.43;;;27.53;;
39788;SDS011;25478;42.626;23.320;2023-02-15T17:37:29;47.53;;;24.43;;
39788;SDS011;25478;42.626;23.320;2023-02-15T17:39:55;45.07;;;23.50;;
39788;SDS011;25478;42.626;23.320;2023-02-15T17:42:22;49.07;;;24.87;;
39788;SDS011;25478;42.626;23.320;2023-02-15T17:44:47;51.47;;;25.77;;
39788;SDS011;25478;42.626;23.320;2023-02-15T17:47:18;51.27;;;26.30;;
39788;SDS011;25478;42.626;23.320;2023-02-15T17:49:45;68.63;;;32.77;;
39788;SDS011;25478;42.626;23.320;2023-02-15T17:52:14;82.73;;;36.60;;
39788;SDS011;25478;42.626;23.320;2023-02-15T17:54:41;91.13;;;39.70;;
39788;SDS011;25478;42.626;23.320;2023-02-15T17:57:26;79.88;;;35.85;;
39788;SDS011;25478;42.626;23.320;2023-02-15T17:59:53;51.73;;;25.63;;
39788;SDS011;25478;42.626;23.320;2023-02-15T18:02:37;48.38;;;24.40;;
39788;SDS011;25478;42.626;23.320;2023-02-15T18:05:22;43.80;;;21.55;;
39788;SDS011;25478;42.626;23.320;2023-02-15T18:08:15;49.13;;;23.73;;